Main page
METAR-TAF:

METAR-TAF

Airports :

O'Hare International Airport

Chicago, Illinois, United States

latitude: 41-58-47N, longitude: 087-54-16W, elevation: 203 m

Current weather observation

The report was made 19 minutes ago, at 01:51 UTC
Wind 4 kt from the East/Southeast
Temperature -1°C
Humidity 80%
Pressure 1028 hPa
Visibility: 16.1 km
Few clouds at a height of 25000 ft

METAR: KORD 070151Z 12004KT 10SM FEW250 M01/M04 A3036 RMK AO2 SLP289 T10061044

Time: 20:10 (02:10 UTC)

Forecast

The report was made 2 hours and 50 minutes ago, at 23:20 UTC
Forecast valid from 07 at 00 UTC to 08 at 06 UTC
Wind 3 kt from variable directions
Visibility: 10 km
Few clouds at a height of 25000 ft
From 07 at 1500 UTC
Wind 9 kt from the South/Southwest
Visibility: 10 km
Few clouds at a height of 9000 ft
Scattered clouds at a height of 25000 ft

TAF: KORD 062320Z 0700/0806 VRB03KT P6SM FEW250 FM071500 20009KT P6SM FEW090 SCT250

Weather observations and forecasts of more than 4000 airports (METAR and TAF reports).

The available stations are represented by yellow and red dots on the map.

Hover mouse over dot to see the name of the station.

Then click to see weather observations and forecasts.

To change the map : click on the green buttons with a black cross to zoom in, on the green button with a dash to zoom out, or on the green arrows for adjacent maps.


METAR-TAF: